Terminal Aerodrome Forecast
Issued by NWS

Home | Current Version | Previous Version | Text Only | Print | Product List | Glossary On
Versions: 1 2 3 4 5 6 7 8 9 10 11 12 13
449
FTUS43 KIWX 281723
TAFSBN
TAF
KSBN 281723Z 2818/2918 18009KT P6SM BKN110
     FM282100 13007KT P6SM OVC080
     FM290100 09006KT P6SM VCSH OVC060
     FM291000 03007KT P6SM VCSH OVC030
     FM291700 05011KT 6SM BR VCSH OVC020=

USA.gov is the U.S. government's official web portal to all federal, state and local government web resources and services.